Map

Track Data

SID SEASON NUMBER BASIN SUBBASIN NAME ISO_TIME NATURE LAT LON WMO_WIND WMO_PRES WMO_AGENCY TRACK_TYPE DIST2LAND LANDFALL IFLAG USA_AGENCY USA_ATCF_ID USA_LAT USA_LON USA_RECORD USA_STATUS USA_WIND USA_PRES USA_SSHS USA_R34_NE USA_R34_SE USA_R34_SW USA_R34_NW USA_R50_NE USA_R50_SE USA_R50_SW USA_R50_NW USA_R64_NE USA_R64_SE USA_R64_SW USA_R64_NW USA_POCI USA_ROCI USA_RMW USA_EYE TOKYO_LAT TOKYO_LON TOKYO_GRADE TOKYO_WIND TOKYO_PRES TOKYO_R50_DIR TOKYO_R50_LONG TOKYO_R50_SHORT TOKYO_R30_DIR TOKYO_R30_LONG TOKYO_R30_SHORT TOKYO_LAND CMA_LAT CMA_LON CMA_CAT CMA_WIND CMA_PRES HKO_LAT HKO_LON HKO_CAT HKO_WIND HKO_PRES NEWDELHI_LAT NEWDELHI_LON NEWDELHI_GRADE NEWDELHI_WIND NEWDELHI_PRES NEWDELHI_CI NEWDELHI_DP NEWDELHI_POCI REUNION_LAT REUNION_LON REUNION_TYPE REUNION_WIND REUNION_PRES REUNION_TNUM REUNION_CI REUNION_RMW REUNION_R34_NE REUNION_R34_SE REUNION_R34_SW REUNION_R34_NW REUNION_R50_NE REUNION_R50_SE REUNION_R50_SW REUNION_R50_NW REUNION_R64_NE REUNION_R64_SE REUNION_R64_SW REUNION_R64_NW BOM_LAT BOM_LON BOM_TYPE BOM_WIND BOM_PRES BOM_TNUM BOM_CI BOM_RMW BOM_R34_NE BOM_R34_SE BOM_R34_SW BOM_R34_NW BOM_R50_NE BOM_R50_SE BOM_R50_SW BOM_R50_NW BOM_R64_NE BOM_R64_SE BOM_R64_SW BOM_R64_NW BOM_ROCI BOM_POCI BOM_EYE BOM_POS_METHOD BOM_PRES_METHOD NADI_LAT NADI_LON NADI_CAT NADI_WIND NADI_PRES WELLINGTON_LAT WELLINGTON_LON WELLINGTON_WIND WELLINGTON_PRES DS824_LAT DS824_LON DS824_STAGE DS824_WIND DS824_PRES TD9636_LAT TD9636_LON TD9636_STAGE TD9636_WIND TD9636_PRES TD9635_LAT TD9635_LON TD9635_WIND TD9635_PRES TD9635_ROCI NEUMANN_LAT NEUMANN_LON NEUMANN_CLASS NEUMANN_WIND NEUMANN_PRES MLC_LAT MLC_LON MLC_CLASS MLC_WIND MLC_PRES USA_GUST BOM_GUST BOM_GUST_PER REUNION_GUST REUNION_GUST_PER USA_SEAHGT USA_SEARAD_NE USA_SEARAD_SE USA_SEARAD_SW USA_SEARAD_NW STORM_SPEED STORM_DIR
2022293N21129 2022 76 WP MM NOT_NAMED 2022-10-20 00:00:00 NR 20.7000 129.200 PROVISIONAL 767 759 O_____________ tcvitals WP252022 20.7000 129.200 25 1006 -1 1008 155 100 8 327
2022293N21129 2022 76 WP MM NOT_NAMED 2022-10-20 03:00:00 NR 21.0574 128.958 PROVISIONAL 763 729 P_____________ WP252022 21.0574 128.958 25 1005 -1 1008 152 72 8 312
2022293N21129 2022 76 WP MM NOT_NAMED 2022-10-20 06:00:00 NR 21.2000 128.600 PROVISIONAL 729 673 O_____________ tcvitals WP252022 21.2000 128.600 25 1004 -1 1008 150 45 8 266
2022293N21129 2022 76 WP MM NOT_NAMED 2022-10-20 09:00:00 NR 21.0026 128.052 PROVISIONAL 673 593 P_____________ WP252022 21.0026 128.052 25 1004 -1 1010 150 45 12 246
2022293N21129 2022 76 WP MM NOT_NAMED 2022-10-20 12:00:00 NR 20.7000 127.400 PROVISIONAL 593 531 O_____________ tcvitals WP252022 20.7000 127.400 25 1005 -1 1012 150 45 13 250
2022293N21129 2022 76 WP MM NOT_NAMED 2022-10-20 15:00:00 NR 20.5697 126.773 PROVISIONAL 531 462 P_____________ WP252022 20.5697 126.773 27 1005 -1 1011 120 45 12 261
2022293N21129 2022 76 WP MM NOT_NAMED 2022-10-20 18:00:00 NR 20.5000 126.100 PROVISIONAL 462 394 O_____________ tcvitals WP252022 20.5000 126.100 29 1006 -1 1010 90 45 13 264
2022293N21129 2022 76 WP MM NOT_NAMED 2022-10-20 21:00:00 NR 20.4422 125.380 PROVISIONAL 394 328 P_____________ WP252022 20.4422 125.380 29 1005 -1 1010 90 45 14 266
2022293N21129 2022 76 WP MM NOT_NAMED 2022-10-21 00:00:00 NR 20.4000 124.600 PROVISIONAL 328 264 O_____________ tcvitals WP252022 20.4000 124.600 29 1004 -1 1010 90 45 16 266
2022293N21129 2022 76 WP MM NOT_NAMED 2022-10-21 03:00:00 NR 20.3353 123.727 PROVISIONAL 258 221 P_____________ WP252022 20.3353 123.727 29 1005 -1 1010 105 42 16 266
2022293N21129 2022 76 WP MM NOT_NAMED 2022-10-21 06:00:00 NR 20.3000 122.900 PROVISIONAL 221 212 O_____________ tcvitals WP252022 20.3000 122.900 29 1006 -1 1010 120 40 13 271
2022293N21129 2022 76 WP MM NOT_NAMED 2022-10-21 09:00:00 NR 20.3562 122.315 PROVISIONAL 221 187 P_____________ WP252022 20.3562 122.315 29 1006 -1 1011 120 40 11 275
2022293N21129 2022 76 WP MM NOT_NAMED 2022-10-21 12:00:00 NR 20.4000 121.700 PROVISIONAL 187 167 O_____________ tcvitals WP252022 20.4000 121.700 29 1006 -1 1013 120 40 15 269
2022293N21129 2022 76 WP MM NOT_NAMED 2022-10-21 15:00:00 NR 20.3314 120.705 PROVISIONAL 178 178 P_____________ WP252022 20.3314 120.705 27 1006 -1 1012 107 47 18 264
2022293N21129 2022 76 WP MM NOT_NAMED 2022-10-21 18:00:00 NR 20.2000 119.800 PROVISIONAL 207 207 O_____________ tcvitals WP252022 20.2000 119.800 25 1007 -1 1011 95 55 13 256
2022293N21129 2022 76 WP MM NOT_NAMED 2022-10-21 21:00:00 NR 20.0117 119.335 PROVISIONAL 222 222 P_____________ WP252022 20.0117 119.335 25 1007 -1 1011 95 55 6 242
2022293N21129 2022 76 WP MM NOT_NAMED 2022-10-22 00:00:00 NR 19.9000 119.200 PROVISIONAL 222 214 O_____________ tcvitals WP252022 19.9000 119.200 25 1007 -1 1011 95 55 0 0
2022293N21129 2022 76 WP MM NOT_NAMED 2022-10-22 03:00:00 NR 20.0200 119.350 PROVISIONAL 222 214 P_____________ WP252022 20.0200 119.350 25 1007 -1 1011 95 55 4 43
2022293N21129 2022 76 WP MM NOT_NAMED 2022-10-22 06:00:00 NR 20.2000 119.500 PROVISIONAL 224 224 O_____________ tcvitals WP252022 20.2000 119.500 25 1007 -1 1011 95 55 2 347
2022293N21129 2022 76 WP MM NOT_NAMED 2022-10-22 09:00:00 NR 20.2574 119.297 PROVISIONAL 230 230 P_____________ WP252022 20.2574 119.297 25 1007 -1 1011 95 55 6 280
2022293N21129 2022 76 WP MM NOT_NAMED 2022-10-22 12:00:00 NR 20.3000 118.900 PROVISIONAL 258 258 O_____________ tcvitals WP252022 20.3000 118.900 25 1007 -1 1011 95 55 8 283
2022293N21129 2022 76 WP MM NOT_NAMED 2022-10-22 15:00:00 NR 20.4374 118.446 PROVISIONAL 291 285 P_____________ WP252022 20.4374 118.446 25 1008 -1 1010 77 55 10 282
2022293N21129 2022 76 WP MM NOT_NAMED 2022-10-22 18:00:00 NR 20.5000 117.900 PROVISIONAL 304 291 O_____________ tcvitals WP252022 20.5000 117.900 25 1009 -1 1010 60 55 11 266
2022293N21129 2022 76 WP MM NOT_NAMED 2022-10-22 21:00:00 NR 20.3629 117.309 PROVISIONAL 291 291 P_____________ WP252022 20.3629 117.309 27 1010 -1 1011 60 50 12 250
2022293N21129 2022 76 WP MM NOT_NAMED 2022-10-23 00:00:00 NR 20.1000 116.700 PROVISIONAL 305 O_____________ tcvitals WP252022 20.1000 116.700 29 1011 -1 1012 60 45 13 245

Digital Typhoon Data and Search

About IBTrACS Database

This database is a web-friendly format of International Best Track Archive for Climate Stewardship (IBTrACS), a global best track data archive curated by NOAA dating back to 1842.

Updated: 2022-11-16